Time;durP1;ratioP1;P1;durP2;ratioP2;P2;SDS_P1;SDS_P2;PMS_P1;PMS_P2;Temp;Humidity;BMP_temperature;BMP_pressure;BME280_temperature;BME280_humidity;BME280_pressure;Samples;Min_cycle;Max_cycle;Signal;HPM_P1;HPM_P2
2021/05/02 00:02:35;;;;;;;1999.90;999.90;;;;;;;8.12;100.00;-18126.13;4922548;29;20331;-29
2021/05/02 00:05:23;;;;;;;1999.90;999.90;;;;;;;8.19;100.00;-18127.88;4922298;29;20664;-29
2021/05/02 00:08:08;;;;;;;1999.90;999.90;;;;;;;7.79;100.00;-18117.41;4922515;29;20236;-29
2021/05/02 00:10:57;;;;;;;1999.90;999.90;;;;;;;7.69;100.00;-18114.59;4927364;29;20205;-29
2021/05/02 00:13:45;;;;;;;1999.90;999.90;;;;;;;8.03;100.00;-18123.72;4934221;29;20226;-29
2021/05/02 00:16:33;;;;;;;1999.90;999.90;;;;;;;8.01;100.00;-18123.19;4926982;29;20281;-29
2021/05/02 00:19:22;;;;;;;1999.90;999.90;;;;;;;7.62;100.00;-18112.84;4932819;29;20209;-29
2021/05/02 00:22:11;;;;;;;1999.90;999.90;;;;;;;7.95;100.00;-18121.56;4928953;29;20202;-29
2021/05/02 00:24:58;;;;;;;1999.90;999.90;;;;;;;7.72;100.00;-18115.53;4924790;29;20293;-29
2021/05/02 00:27:45;;;;;;;1999.90;999.90;;;;;;;7.90;100.00;-18120.38;4921068;29;20304;-29
2021/05/02 00:30:33;;;;;;;1999.90;999.90;;;;;;;7.74;100.00;-18116.09;4921451;29;20270;-29
2021/05/02 00:33:20;;;;;;;1999.90;999.90;;;;;;;8.10;100.00;-18125.47;4921523;29;20262;-29
2021/05/02 00:36:06;;;;;;;1999.90;999.90;;;;;;;7.85;100.00;-18119.03;4921412;29;20201;-29
2021/05/02 00:38:53;;;;;;;1999.90;999.90;;;;;;;8.09;100.00;-18125.19;4922499;29;20624;-29
2021/05/02 00:41:43;;;;;;;1999.90;999.90;;;;;;;7.67;100.00;-18114.19;4927719;29;20253;-29
2021/05/02 00:44:38;;;;;;;1999.90;999.90;;;;;;;7.42;100.00;-18107.50;4938961;29;20201;-31
2021/05/02 00:47:32;;;;;;;1999.90;999.90;;;;;;;7.44;100.00;-18108.03;4933970;29;20202;-29
2021/05/02 00:50:27;;;;;;;1999.90;999.90;;;;;;;7.59;100.00;-18112.06;4925113;29;20263;-28
2021/05/02 00:53:21;;;;;;;1999.90;999.90;;;;;;;7.48;100.00;-18109.09;4925006;29;20208;-29
2021/05/02 00:56:17;;;;;;;1999.90;999.90;;;;;;;7.46;100.00;-18108.56;4924387;29;20492;-28
2021/05/02 00:59:04;;;;;;;1999.90;999.90;;;;;;;7.24;100.00;-18102.94;4924569;29;20304;-31
2021/05/02 01:01:53;;;;;;;1999.90;999.90;;;;;;;7.39;100.00;-18106.84;4924665;29;20205;-31
2021/05/02 01:04:43;;;;;;;1999.90;999.90;;;;;;;7.29;100.00;-18104.16;4924366;29;20657;-31
2021/05/02 01:07:35;;;;;;;1999.90;999.90;;;;;;;7.18;100.00;-18101.19;4924213;29;20225;-31
2021/05/02 01:10:22;;;;;;;1999.90;999.90;;;;;;;7.04;100.00;-18097.44;4924268;29;20202;-30
2021/05/02 01:13:14;;;;;;;1999.90;999.90;;;;;;;7.08;100.00;-18098.53;4924584;29;20326;-30
2021/05/02 01:16:06;;;;;;;1999.90;999.90;;;;;;;7.08;100.00;-18098.66;4924229;29;20269;-30
2021/05/02 01:18:54;;;;;;;1999.90;999.90;;;;;;;6.94;100.00;-18094.91;4924186;29;20219;-30
2021/05/02 01:21:42;;;;;;;1999.90;999.90;;;;;;;6.98;100.00;-18095.97;4927301;29;20714;-30
2021/05/02 01:24:29;;;;;;;1999.90;999.90;;;;;;;6.94;100.00;-18094.78;4925319;29;20209;-30
2021/05/02 01:27:26;;;;;;;1999.90;999.90;;;;;;;7.07;100.00;-18098.38;4924975;29;20204;-30
2021/05/02 01:30:14;;;;;;;1999.90;999.90;;;;;;;6.93;100.00;-18094.50;4928019;29;20197;-30
2021/05/02 01:33:00;;;;;;;1999.90;999.90;;;;;;;6.93;100.00;-18094.63;4926404;29;20197;-30
2021/05/02 01:35:47;;;;;;;1999.90;999.90;;;;;;;6.73;100.00;-18089.41;4924243;29;20197;-30
2021/05/02 01:38:34;;;;;;;1999.90;999.90;;;;;;;6.68;100.00;-18088.06;4923955;29;20213;-30
2021/05/02 01:41:21;;;;;;;1999.90;999.90;;;;;;;6.77;100.00;-18090.47;4924054;29;20293;-29
2021/05/02 01:44:07;;;;;;;1999.90;999.90;;;;;;;6.78;100.00;-18090.63;4924963;29;20225;-30
2021/05/02 01:47:04;;;;;;;1999.90;999.90;;;;;;;6.72;100.00;-18089.00;4924195;29;20204;-29
2021/05/02 01:49:56;;;;;;;1999.90;999.90;;;;;;;6.86;100.00;-18092.75;4923570;29;20196;-30
2021/05/02 01:52:45;;;;;;;1999.90;999.90;;;;;;;6.87;100.00;-18093.16;4923080;29;20477;-30
2021/05/02 01:55:31;;;;;;;1999.90;999.90;;;;;;;6.87;100.00;-18093.03;4923620;29;20213;-30
2021/05/02 01:58:23;;;;;;;1999.90;999.90;;;;;;;6.80;100.00;-18091.16;4922609;29;20269;-30
2021/05/02 02:01:13;;;;;;;1999.90;999.90;;;;;;;6.94;100.00;-18094.91;4923217;29;20392;-30
2021/05/02 02:04:03;;;;;;;1999.90;999.90;;;;;;;7.23;100.00;-18102.53;4923536;29;20212;-30
2021/05/02 02:06:49;;;;;;;1999.90;999.90;;;;;;;7.48;100.00;-18109.09;4923091;29;20227;-30
2021/05/02 02:09:35;;;;;;;1999.90;999.90;;;;;;;7.09;100.00;-18098.78;4923434;29;20232;-29
2021/05/02 02:12:31;;;;;;;1999.90;999.90;;;;;;;7.19;100.00;-18101.59;4923514;29;20548;-29
2021/05/02 02:15:18;;;;;;;1999.90;999.90;;;;;;;7.18;100.00;-18101.34;4923376;29;20337;-29
2021/05/02 02:18:05;;;;;;;1999.90;999.90;;;;;;;6.70;100.00;-18088.47;4922917;29;20209;-29
2021/05/02 02:20:54;;;;;;;1999.90;999.90;;;;;;;6.58;100.00;-18085.38;4923373;29;20237;-29
2021/05/02 02:23:43;;;;;;;1999.90;999.90;;;;;;;6.96;100.00;-18095.31;4923136;29;20665;-29
2021/05/02 02:26:35;;;;;;;1999.90;999.90;;;;;;;6.89;100.00;-18093.69;4922725;29;20201;-29
2021/05/02 02:29:23;;;;;;;1999.90;999.90;;;;;;;6.76;100.00;-18090.06;4922510;29;20633;-29
2021/05/02 02:32:12;;;;;;;1999.90;999.90;;;;;;;7.20;100.00;-18101.72;4923258;29;20552;-29
2021/05/02 02:34:59;;;;;;;1999.90;999.90;;;;;;;7.35;100.00;-18105.75;4930014;29;20201;-29
2021/05/02 02:37:49;;;;;;;1999.90;999.90;;;;;;;7.12;100.00;-18099.72;4923228;29;20201;-29
2021/05/02 02:40:38;;;;;;;1999.90;999.90;;;;;;;7.45;100.00;-18108.31;4922589;29;20225;-29
2021/05/02 02:43:27;;;;;;;1999.90;999.90;;;;;;;7.29;100.00;-18104.00;4922596;29;20205;-29
2021/05/02 02:46:17;;;;;;;1999.90;999.90;;;;;;;7.60;100.00;-18112.31;4929656;29;20208;-29
2021/05/02 02:49:05;;;;;;;1999.90;999.90;;;;;;;7.51;100.00;-18110.03;4925545;29;20337;-29
2021/05/02 02:51:54;;;;;;;1999.90;999.90;;;;;;;7.59;100.00;-18112.19;4922923;29;20205;-29
2021/05/02 02:54:42;;;;;;;1999.90;999.90;;;;;;;7.53;100.00;-18110.44;4922439;29;20209;-29
2021/05/02 02:57:31;;;;;;;1999.90;999.90;;;;;;;7.41;100.00;-18107.22;4922021;29;20308;-29
2021/05/02 03:00:20;;;;;;;1999.90;999.90;;;;;;;7.46;100.00;-18108.72;4921806;29;20650;-29
2021/05/02 03:03:09;;;;;;;1999.90;999.90;;;;;;;7.10;100.00;-18099.06;4923652;29;20201;-29
2021/05/02 03:06:00;;;;;;;1999.90;999.90;;;;;;;7.14;100.00;-18100.25;4926415;29;20209;-29
2021/05/02 03:08:47;;;;;;;1999.90;999.90;;;;;;;7.09;100.00;-18098.91;4924820;29;20229;-29
2021/05/02 03:11:34;;;;;;;1999.90;999.90;;;;;;;6.62;100.00;-18086.31;4925289;29;20200;-29
2021/05/02 03:14:21;;;;;;;1999.90;999.90;;;;;;;6.66;100.00;-18087.38;4922577;29;20257;-29
2021/05/02 03:17:10;;;;;;;1999.90;999.90;;;;;;;6.73;100.00;-18089.28;4922189;29;20205;-29
2021/05/02 03:20:03;;;;;;;1999.90;999.90;;;;;;;6.80;100.00;-18091.28;4921465;29;20244;-29
2021/05/02 03:22:56;;;;;;;1999.90;999.90;;;;;;;6.66;100.00;-18087.38;4921662;29;20238;-29
2021/05/02 03:25:44;;;;;;;1999.90;999.90;;;;;;;6.40;100.00;-18080.69;4921544;29;20728;-29
2021/05/02 03:28:35;;;;;;;1999.90;999.90;;;;;;;6.69;100.00;-18088.19;4921499;29;20257;-29
2021/05/02 03:31:24;;;;;;;1999.90;999.90;;;;;;;6.80;100.00;-18091.16;4921699;29;20326;-29
2021/05/02 03:34:11;;;;;;;1999.90;999.90;;;;;;;6.66;100.00;-18087.53;4921610;29;20352;-29
2021/05/02 03:37:00;;;;;;;1999.90;999.90;;;;;;;6.82;100.00;-18091.69;4921776;29;20336;-29
2021/05/02 03:39:49;;;;;;;1999.90;999.90;;;;;;;6.97;100.00;-18095.72;4920895;29;20478;-29
2021/05/02 03:42:35;;;;;;;1999.90;999.90;;;;;;;6.94;100.00;-18094.91;4921170;29;20208;-29
2021/05/02 03:45:22;;;;;;;1999.90;999.90;;;;;;;7.05;100.00;-18097.84;4921030;29;20492;-29
2021/05/02 03:48:08;;;;;;;1999.90;999.90;;;;;;;7.05;100.00;-18097.84;4921684;29;20221;-29
2021/05/02 03:50:54;;;;;;;1999.90;999.90;;;;;;;7.14;100.00;-18100.13;4922300;29;20595;-29
2021/05/02 03:53:40;;;;;;;1999.90;999.90;;;;;;;7.09;100.00;-18098.91;4921986;29;20216;-29
2021/05/02 03:56:32;;;;;;;1999.90;999.90;;;;;;;6.66;100.00;-18087.38;4921563;29;20208;-29
2021/05/02 03:59:20;;;;;;;1999.90;999.90;;;;;;;6.97;100.00;-18095.56;4921792;29;20210;-29
2021/05/02 04:02:07;;;;;;;1999.90;999.90;;;;;;;7.07;100.00;-18098.38;4921591;29;20197;-29
2021/05/02 04:04:53;;;;;;;1999.90;999.90;;;;;;;7.00;100.00;-18096.50;4920807;29;20205;-29
2021/05/02 04:07:39;;;;;;;1999.90;999.90;;;;;;;7.11;100.00;-18099.47;4920884;29;20612;-29
2021/05/02 04:10:26;;;;;;;1999.90;999.90;;;;;;;7.06;100.00;-18098.13;4922279;29;20212;-29
2021/05/02 04:13:12;;;;;;;1999.90;999.90;;;;;;;7.07;100.00;-18098.38;4921377;29;20651;-29
2021/05/02 04:15:58;;;;;;;1999.90;999.90;;;;;;;7.09;100.00;-18098.78;4921154;29;20205;-29
2021/05/02 04:18:45;;;;;;;1999.90;999.90;;;;;;;7.26;100.00;-18103.34;4921364;29;20371;-29
2021/05/02 04:21:31;;;;;;;1999.90;999.90;;;;;;;7.21;100.00;-18102.00;4920789;29;20244;-29
2021/05/02 04:24:17;;;;;;;1999.90;999.90;;;;;;;6.69;100.00;-18088.34;4921545;29;20276;-29
2021/05/02 04:27:04;;;;;;;1999.90;999.90;;;;;;;7.11;100.00;-18099.47;4920896;29;20293;-29
2021/05/02 04:29:51;;;;;;;1999.90;999.90;;;;;;;7.15;100.00;-18100.53;4921075;29;20213;-29
2021/05/02 04:32:37;;;;;;;1999.90;999.90;;;;;;;7.32;100.00;-18104.81;4921037;29;20212;-28
2021/05/02 04:35:23;;;;;;;1999.90;999.90;;;;;;;7.18;100.00;-18101.34;4921340;29;20196;-29
2021/05/02 04:38:09;;;;;;;1999.90;999.90;;;;;;;7.16;100.00;-18100.66;4923104;29;20304;-29
2021/05/02 04:40:55;;;;;;;1999.90;999.90;;;;;;;7.35;100.00;-18105.75;4923778;29;20240;-29
2021/05/02 04:43:44;;;;;;;1999.90;999.90;;;;;;;7.45;100.00;-18108.31;4921192;29;20603;-29
2021/05/02 04:46:30;;;;;;;1999.90;999.90;;;;;;;7.49;100.00;-18109.38;4921702;29;20774;-29
2021/05/02 04:49:17;;;;;;;1999.90;999.90;;;;;;;7.59;100.00;-18112.19;4920484;29;20202;-29
2021/05/02 04:52:03;;;;;;;1999.90;999.90;;;;;;;7.49;100.00;-18109.38;4920760;29;20357;-29
2021/05/02 04:54:48;;;;;;;1999.90;999.90;;;;;;;7.33;100.00;-18105.22;4921319;29;20208;-29
2021/05/02 04:57:34;;;;;;;1999.90;999.90;;;;;;;7.43;100.00;-18107.91;4921377;29;20600;-29
2021/05/02 05:00:21;;;;;;;1999.90;999.90;;;;;;;7.19;100.00;-18101.47;4920469;29;20229;-30
2021/05/02 05:03:08;;;;;;;1999.90;999.90;;;;;;;7.24;100.00;-18102.81;4921056;29;20220;-29
2021/05/02 05:05:54;;;;;;;1999.90;999.90;;;;;;;7.36;100.00;-18106.03;4922291;29;20483;-29
2021/05/02 05:08:40;;;;;;;1999.90;999.90;;;;;;;7.38;100.00;-18106.44;4921543;29;20251;-29
2021/05/02 05:11:26;;;;;;;1999.90;999.90;;;;;;;6.74;100.00;-18089.53;4920775;29;20209;-29
2021/05/02 05:14:12;;;;;;;1999.90;999.90;;;;;;;7.09;100.00;-18098.91;4921174;29;20225;-29
2021/05/02 05:16:58;;;;;;;1999.90;999.90;;;;;;;7.03;100.00;-18097.19;4921118;29;20354;-29
2021/05/02 05:19:48;;;;;;;1999.90;999.90;;;;;;;7.11;100.00;-18099.31;4920591;29;20364;-29
2021/05/02 05:22:34;;;;;;;1999.90;999.90;;;;;;;7.14;100.00;-18100.25;4920742;29;20584;-29
2021/05/02 05:25:20;;;;;;;1999.90;999.90;;;;;;;7.34;100.00;-18105.34;4920417;29;20704;-29
2021/05/02 05:28:05;;;;;;;1999.90;999.90;;;;;;;6.92;100.00;-18094.38;4924554;29;20242;-29
2021/05/02 05:30:52;;;;;;;1999.90;999.90;;;;;;;7.34;100.00;-18105.34;4926056;29;20209;-29
2021/05/02 05:33:43;;;;;;;1999.90;999.90;;;;;;;7.77;100.00;-18116.88;4923725;29;20197;-29
2021/05/02 05:36:32;;;;;;;1999.90;999.90;;;;;;;7.26;100.00;-18103.34;4923487;29;20212;-29
2021/05/02 05:39:18;;;;;;;1999.90;999.90;;;;;;;7.67;100.00;-18114.19;4923826;29;20209;-29
2021/05/02 05:42:05;;;;;;;1999.90;999.90;;;;;;;7.13;100.00;-18100.00;4923691;29;20225;-29
2021/05/02 05:44:51;;;;;;;1999.90;999.90;;;;;;;7.47;100.00;-18108.84;4924610;29;20316;-29
2021/05/02 05:47:37;;;;;;;1999.90;999.90;;;;;;;6.93;100.00;-18094.63;4923026;29;20313;-29
2021/05/02 05:50:24;;;;;;;1999.90;999.90;;;;;;;7.39;100.00;-18106.69;4927277;29;20209;-29
2021/05/02 05:53:12;;;;;;;1999.90;999.90;;;;;;;7.45;100.00;-18108.31;4923398;29;20217;-29
2021/05/02 05:55:58;;;;;;;1999.90;999.90;;;;;;;7.64;100.00;-18113.41;4924338;29;20229;-29
2021/05/02 05:58:43;;;;;;;1999.90;999.90;;;;;;;7.60;100.00;-18112.31;4925411;29;20304;-29
2021/05/02 06:01:29;;;;;;;1999.90;999.90;;;;;;;7.78;100.00;-18117.03;4923372;29;20236;-29
2021/05/02 06:04:15;;;;;;;1999.90;999.90;;;;;;;7.78;100.00;-18117.16;4923054;29;20492;-29
2021/05/02 06:07:01;;;;;;;1999.90;999.90;;;;;;;7.70;100.00;-18114.88;4923561;29;20504;-29
2021/05/02 06:09:48;;;;;;;1999.90;999.90;;;;;;;7.60;100.00;-18112.47;4922868;29;20308;-29
2021/05/02 06:12:34;;;;;;;1999.90;999.90;;;;;;;7.55;100.00;-18111.00;4923264;29;20196;-29
2021/05/02 06:15:22;;;;;;;1999.90;999.90;;;;;;;7.85;100.00;-18118.88;4923220;29;20297;-29
2021/05/02 06:18:08;;;;;;;1999.90;999.90;;;;;;;7.02;100.00;-18096.91;4923279;29;20210;-29
2021/05/02 06:20:54;;;;;;;1999.90;999.90;;;;;;;7.52;100.00;-18110.19;4924000;29;20229;-29
2021/05/02 06:23:40;;;;;;;1999.90;999.90;;;;;;;7.77;100.00;-18116.75;4923358;29;20210;-29
2021/05/02 06:26:27;;;;;;;1999.90;999.90;;;;;;;7.43;100.00;-18107.78;4926472;29;20206;-29
2021/05/02 06:29:13;;;;;;;1999.90;999.90;;;;;;;7.18;100.00;-18101.34;4924052;29;20611;-29
2021/05/02 06:31:59;;;;;;;1999.90;999.90;;;;;;;7.12;100.00;-18099.72;4922947;29;20197;-29
2021/05/02 06:34:46;;;;;;;1999.90;999.90;;;;;;;7.19;100.00;-18101.59;4923309;29;20202;-29
2021/05/02 06:37:32;;;;;;;1999.90;999.90;;;;;;;6.97;100.00;-18095.56;4922702;29;20204;-29
2021/05/02 06:40:18;;;;;;;1999.90;999.90;;;;;;;7.42;100.00;-18107.63;4922896;29;20210;-29
2021/05/02 06:43:09;;;;;;;1999.90;999.90;;;;;;;7.50;100.00;-18109.66;4934294;29;20219;-29
2021/05/02 06:45:55;;;;;;;1999.90;999.90;;;;;;;7.83;100.00;-18118.34;4922565;29;20225;-29
2021/05/02 06:48:41;;;;;;;1999.90;999.90;;;;;;;7.24;100.00;-18102.81;4922906;29;20341;-29
2021/05/02 06:51:28;;;;;;;1999.90;999.90;;;;;;;7.41;100.00;-18107.38;4923135;29;20198;-29
2021/05/02 06:54:14;;;;;;;1999.90;999.90;;;;;;;7.59;100.00;-18112.06;4923083;29;20309;-29
2021/05/02 06:57:05;;;;;;;1999.90;999.90;;;;;;;7.51;100.00;-18109.91;4926546;29;20620;-29
2021/05/02 06:59:53;;;;;;;1999.90;999.90;;;;;;;7.50;100.00;-18109.66;4924531;29;20205;-29
2021/05/02 07:02:39;;;;;;;1999.90;999.90;;;;;;;8.07;100.00;-18124.66;4924424;29;20217;-29
2021/05/02 07:05:25;;;;;;;1999.90;999.90;;;;;;;7.30;100.00;-18104.41;4923196;29;20205;-29
2021/05/02 07:08:10;;;;;;;1999.90;999.90;;;;;;;7.19;100.00;-18101.47;4923886;29;20234;-29
2021/05/02 07:10:59;;;;;;;1999.90;999.90;;;;;;;7.00;100.00;-18096.38;4924616;29;20213;-29
2021/05/02 07:13:47;;;;;;;1999.90;999.90;;;;;;;7.43;100.00;-18107.78;4923522;29;20297;-29
2021/05/02 07:16:34;;;;;;;1999.90;999.90;;;;;;;7.21;100.00;-18102.13;4923850;29;20619;-31
2021/05/02 07:19:22;;;;;;;1999.90;999.90;;;;;;;7.55;100.00;-18111.13;4925631;29;20217;-30
2021/05/02 07:22:09;;;;;;;1999.90;999.90;;;;;;;7.50;100.00;-18109.78;4923705;29;20229;-30
2021/05/02 07:24:55;;;;;;;1999.90;999.90;;;;;;;7.48;100.00;-18109.09;4922666;29;20688;-30
2021/05/02 07:27:41;;;;;;;1999.90;999.90;;;;;;;7.44;100.00;-18108.03;4926366;29;20314;-30
2021/05/02 07:30:27;;;;;;;1999.90;999.90;;;;;;;7.78;100.00;-18117.03;4924688;29;20204;-28
2021/05/02 07:33:15;;;;;;;1999.90;999.90;;;;;;;8.01;100.00;-18123.19;4925144;29;20627;-31
2021/05/02 07:36:02;;;;;;;1999.90;999.90;;;;;;;8.22;100.00;-18128.81;4929277;29;20209;-29
2021/05/02 07:38:48;;;;;;;1999.90;999.90;;;;;;;8.34;100.00;-18131.75;4922620;29;20248;-30
2021/05/02 07:41:35;;;;;;;1999.90;999.90;;;;;;;8.67;100.00;-18140.47;4924013;29;20237;-30
2021/05/02 07:44:21;;;;;;;1999.90;999.90;;;;;;;7.99;100.00;-18122.50;4924641;29;20200;-30
2021/05/02 07:47:08;;;;;;;1999.90;999.90;;;;;;;8.82;100.00;-18144.47;4924227;29;20219;-29
2021/05/02 07:49:58;;;;;;;1999.90;999.90;;;;;;;8.61;100.00;-18139.13;4928076;29;20303;-30
2021/05/02 07:52:48;;;;;;;1999.90;999.90;;;;;;;8.97;100.00;-18148.63;4933798;29;20221;-30
2021/05/02 07:55:35;;;;;;;1999.90;999.90;;;;;;;8.80;100.00;-18143.94;4923333;29;20736;-31
2021/05/02 07:58:21;;;;;;;1999.90;999.90;;;;;;;9.35;100.00;-18158.53;4923586;29;20197;-30
2021/05/02 08:01:08;;;;;;;1999.90;999.90;;;;;;;9.40;100.00;-18159.75;4933737;29;20292;-32
2021/05/02 08:03:57;;;;;;;1999.90;999.90;;;;;;;9.89;100.00;-18172.72;4921559;29;20322;-30
2021/05/02 08:06:44;;;;;;;1999.90;999.90;;;;;;;9.42;100.00;-18160.41;4921488;29;20605;-30
2021/05/02 08:09:29;;;;;;;1999.90;999.90;;;;;;;10.59;100.00;-18191.19;4920850;29;20233;-30
2021/05/02 08:12:18;;;;;;;1999.90;999.90;;;;;;;10.69;100.00;-18193.97;4921061;29;20212;-30
2021/05/02 08:15:06;;;;;;;1999.90;999.90;;;;;;;9.93;100.00;-18173.91;4920811;29;20354;-30
2021/05/02 08:17:52;;;;;;;1999.90;999.90;;;;;;;10.11;100.00;-18178.47;4921271;29;20265;-30
2021/05/02 08:20:41;;;;;;;1999.90;999.90;;;;;;;10.65;100.00;-18192.78;4921924;29;20408;-30
2021/05/02 08:23:28;;;;;;;1999.90;999.90;;;;;;;11.02;100.00;-18202.53;4921174;29;20628;-30
2021/05/02 08:26:14;;;;;;;1999.90;999.90;;;;;;;11.08;98.24;-18204.16;4920693;29;20207;-30
2021/05/02 08:29:00;;;;;;;1999.90;999.90;;;;;;;10.89;97.71;-18199.19;4921599;29;20474;-30
2021/05/02 08:31:46;;;;;;;1999.90;999.90;;;;;;;10.77;99.97;-18196.00;4920851;29;20220;-30
2021/05/02 08:34:35;;;;;;;1999.90;999.90;;;;;;;11.19;94.54;-18207.09;4921705;29;20360;-30
2021/05/02 08:37:21;;;;;;;1999.90;999.90;;;;;;;11.09;99.03;-18204.28;4920769;29;20198;-30
2021/05/02 08:40:12;;;;;;;1999.90;999.90;;;;;;;11.18;96.35;-18206.81;4928912;29;20205;-30
2021/05/02 08:43:04;;;;;;;1999.90;999.90;;;;;;;10.93;100.00;-18200.13;4922548;29;20195;-29
2021/05/02 08:45:50;;;;;;;1999.90;999.90;;;;;;;12.05;88.11;-18229.78;4921510;29;20232;-29
2021/05/02 08:48:36;;;;;;;1999.90;999.90;;;;;;;12.58;88.73;-18243.69;4921323;29;20255;-30
2021/05/02 08:51:22;;;;;;;1999.90;999.90;;;;;;;10.68;94.99;-18193.72;4921187;29;20203;-30
2021/05/02 08:54:08;;;;;;;1999.90;999.90;;;;;;;10.43;100.00;-18187.03;4920715;29;20207;-30
2021/05/02 08:56:56;;;;;;;1999.90;999.90;;;;;;;10.24;100.00;-18182.09;4921552;29;20506;-30
2021/05/02 08:59:45;;;;;;;1999.90;999.90;;;;;;;11.75;96.74;-18221.78;4922685;29;20206;-30
2021/05/02 09:02:35;;;;;;;1999.90;999.90;;;;;;;11.77;90.66;-18222.31;4924771;29;20227;-29
2021/05/02 09:05:24;;;;;;;1999.90;999.90;;;;;;;9.90;95.95;-18172.97;4929490;29;20239;-30
2021/05/02 09:08:32;;;;;;;1999.90;999.90;;;;;;;10.14;98.85;-18179.41;4924536;29;20241;-30
2021/05/02 09:11:33;;;;;;;1999.90;999.90;;;;;;;10.06;97.40;-18177.25;4929641;29;20204;-31
2021/05/02 09:14:31;;;;;;;1999.90;999.90;;;;;;;11.27;94.65;-18209.22;4925194;29;20226;-29
2021/05/02 09:17:25;;;;;;;1999.90;999.90;;;;;;;11.50;84.81;-18215.22;4924488;29;20334;-29
2021/05/02 09:20:15;;;;;;;1999.90;999.90;;;;;;;11.43;79.22;-18213.22;4924289;29;20291;-29
2021/05/02 09:23:00;;;;;;;1999.90;999.90;;;;;;;11.90;82.66;-18225.66;4924545;29;20495;-29
2021/05/02 09:25:59;;;;;;;1999.90;999.90;;;;;;;10.11;89.74;-18178.47;4931702;29;20208;-29
2021/05/02 09:28:49;;;;;;;1999.90;999.90;;;;;;;9.83;92.36;-18171.25;4924390;29;20285;-29
2021/05/02 09:31:42;;;;;;;1999.90;999.90;;;;;;;10.14;90.50;-18179.41;4924398;29;20210;-29
2021/05/02 09:34:31;;;;;;;1999.90;999.90;;;;;;;11.33;83.58;-18210.81;4924125;29;20328;-29
2021/05/02 09:37:32;;;;;;;1999.90;999.90;;;;;;;12.67;77.95;-18246.09;4923686;29;20209;-29
2021/05/02 09:40:18;;;;;;;1999.90;999.90;;;;;;;12.13;74.37;-18231.81;4923645;29;20269;-29
2021/05/02 09:43:07;;;;;;;1999.90;999.90;;;;;;;12.04;72.98;-18229.41;4923815;29;20240;-29
2021/05/02 09:46:07;;;;;;;1999.90;999.90;;;;;;;11.82;72.79;-18223.66;4923548;29;20653;-29
2021/05/02 09:49:15;;;;;;;1999.90;999.90;;;;;;;12.32;68.92;-18236.75;4925340;29;20549;-29
2021/05/02 09:52:04;;;;;;;1999.90;999.90;;;;;;;12.80;66.14;-18249.28;4931502;29;20312;-30
2021/05/02 09:54:50;;;;;;;1999.90;999.90;;;;;;;12.33;68.06;-18237.00;4937671;29;20253;-29
2021/05/02 09:57:36;;;;;;;1999.90;999.90;;;;;;;12.58;67.43;-18243.56;4927471;29;20198;-29
2021/05/02 10:00:31;;;;;;;1999.90;999.90;;;;;;;11.56;71.35;-18216.72;4925676;29;20208;-31
2021/05/02 10:03:24;;;;;;;1999.90;999.90;;;;;;;10.49;69.06;-18188.50;4924141;29;20212;-30
2021/05/02 10:06:36;;;;;;;1999.90;999.90;;;;;;;10.66;75.26;-18193.19;4923256;29;20593;-30
2021/05/02 10:09:28;;;;;;;1999.90;999.90;;;;;;;10.62;75.74;-18192.13;4923952;29;20236;-30
2021/05/02 10:12:16;;;;;;;1999.90;999.90;;;;;;;10.70;78.06;-18194.25;4922197;29;20286;-30
2021/05/02 10:15:08;;;;;;;1999.90;999.90;;;;;;;11.48;78.20;-18214.56;4923046;29;20202;-31
2021/05/02 10:17:54;;;;;;;1999.90;999.90;;;;;;;12.98;67.22;-18254.09;4923207;29;20360;-31
2021/05/02 10:20:41;;;;;;;1999.90;999.90;;;;;;;13.66;62.04;-18272.09;4923830;29;20337;-30
2021/05/02 10:23:31;;;;;;;1999.90;999.90;;;;;;;14.08;59.30;-18283.03;4923584;29;20201;-30
2021/05/02 10:26:18;;;;;;;1999.90;999.90;;;;;;;12.81;62.50;-18249.56;4923686;29;20270;-30
2021/05/02 10:29:08;;;;;;;1999.90;999.90;;;;;;;12.46;62.26;-18240.47;4922595;29;20206;-31
2021/05/02 10:32:01;;;;;;;1999.90;999.90;;;;;;;13.16;63.52;-18258.91;4923378;29;20265;-30
2021/05/02 10:34:49;;;;;;;1999.90;999.90;;;;;;;11.35;63.09;-18211.38;4923443;29;20205;-30
2021/05/02 10:37:40;;;;;;;1999.90;999.90;;;;;;;11.25;68.52;-18208.69;4923365;29;20204;-30
2021/05/02 10:40:31;;;;;;;1999.90;999.90;;;;;;;11.28;69.18;-18209.50;4922674;29;20499;-30
2021/05/02 10:43:31;;;;;;;1999.90;999.90;;;;;;;10.92;72.97;-18200.00;4922687;29;20209;-30
2021/05/02 10:46:45;;;;;;;1999.90;999.90;;;;;;;10.66;76.75;-18193.06;4922042;29;20206;-31
2021/05/02 10:49:56;;;;;;;1999.90;999.90;;;;;;;10.71;70.69;-18194.38;4922637;29;20210;-30
2021/05/02 10:53:01;;;;;;;1999.90;999.90;;;;;;;11.18;71.11;-18206.81;4922369;29;20301;-30
2021/05/02 10:55:51;;;;;;;1999.90;999.90;;;;;;;11.67;66.79;-18219.78;4922390;29;20263;-30
2021/05/02 10:58:39;;;;;;;1999.90;999.90;;;;;;;12.55;65.62;-18242.75;4928818;29;20311;-31
2021/05/02 11:01:28;;;;;;;1999.90;999.90;;;;;;;11.62;65.33;-18218.31;4941232;29;20231;-31
2021/05/02 11:04:15;;;;;;;1999.90;999.90;;;;;;;11.53;68.11;-18216.03;4941208;29;20499;-30
2021/05/02 11:07:04;;;;;;;1999.90;999.90;;;;;;;11.78;65.75;-18222.59;4941435;29;20220;-30
2021/05/02 11:10:05;;;;;;;1999.90;999.90;;;;;;;11.65;64.48;-18219.09;4941306;29;20244;-30
2021/05/02 11:12:52;;;;;;;1999.90;999.90;;;;;;;12.08;62.03;-18230.59;4941932;29;20298;-30
2021/05/02 11:15:39;;;;;;;1999.90;999.90;;;;;;;12.88;58.73;-18251.41;4941363;29;20204;-30
2021/05/02 11:18:27;;;;;;;1999.90;999.90;;;;;;;12.22;62.88;-18234.06;4941147;29;20488;-30
2021/05/02 11:21:13;;;;;;;1999.90;999.90;;;;;;;11.49;59.19;-18214.97;4941085;29;20232;-31
2021/05/02 11:24:00;;;;;;;1999.90;999.90;;;;;;;11.21;61.72;-18207.47;4942271;28;20251;-30
2021/05/02 11:26:54;;;;;;;1999.90;999.90;;;;;;;11.17;66.10;-18206.56;4941474;29;20205;-30
2021/05/02 11:30:14;;;;;;;1999.90;999.90;;;;;;;11.31;66.02;-18210.28;4940761;29;20207;-30
2021/05/02 11:33:03;;;;;;;1999.90;999.90;;;;;;;11.23;64.66;-18208.16;4940932;29;20295;-31
2021/05/02 11:35:56;;;;;;;1999.90;999.90;;;;;;;11.33;62.46;-18210.81;4940823;29;20600;-30
2021/05/02 11:38:44;;;;;;;1999.90;999.90;;;;;;;12.42;58.31;-18239.53;4942681;29;20352;-31
2021/05/02 11:42:03;;;;;;;1999.90;999.90;;;;;;;13.41;56.57;-18265.56;4942092;29;20228;-31
2021/05/02 11:44:53;;;;;;;1999.90;999.90;;;;;;;13.40;56.35;-18265.16;4941456;29;20360;-31
2021/05/02 11:47:39;;;;;;;1999.90;999.90;;;;;;;12.01;54.02;-18228.72;4941532;29;20607;-31
2021/05/02 11:50:26;;;;;;;1999.90;999.90;;;;;;;11.79;53.27;-18222.72;4941197;29;20208;-31
2021/05/02 11:53:12;;;;;;;1999.90;999.90;;;;;;;11.32;56.15;-18210.56;4941581;29;20205;-31
2021/05/02 11:56:01;;;;;;;1999.90;999.90;;;;;;;11.84;59.27;-18224.06;4940919;29;20228;-31
2021/05/02 11:58:49;;;;;;;1999.90;999.90;;;;;;;11.77;66.70;-18222.19;4939786;29;20206;-31
2021/05/02 12:01:40;;;;;;;1999.90;999.90;;;;;;;11.81;70.14;-18223.38;4938808;29;20228;-31
2021/05/02 12:04:29;;;;;;;1999.90;999.90;;;;;;;12.23;68.84;-18234.47;4928038;29;20300;-29
2021/05/02 12:07:22;;;;;;;1999.90;999.90;;;;;;;11.80;67.91;-18223.13;4922405;29;20720;-31
2021/05/02 12:10:28;;;;;;;1999.90;999.90;;;;;;;11.74;67.94;-18221.66;4921404;29;20205;-31
2021/05/02 12:13:28;;;;;;;1999.90;999.90;;;;;;;11.99;66.40;-18228.19;4920980;29;20208;-31
2021/05/02 12:16:16;;;;;;;1999.90;999.90;;;;;;;12.35;65.39;-18237.53;4926421;29;20203;-31
2021/05/02 12:19:10;;;;;;;1999.90;999.90;;;;;;;13.06;63.31;-18256.34;4925261;29;20201;-29
2021/05/02 12:21:57;;;;;;;1999.90;999.90;;;;;;;12.38;64.40;-18238.47;4921356;29;20233;-31
2021/05/02 12:24:48;;;;;;;1999.90;999.90;;;;;;;14.40;60.06;-18291.44;4921512;29;20204;-29